createdAt,value
2023-04-16T00:01:27.287Z,88.90
2023-04-16T00:03:55.929Z,89.60
2023-04-16T00:06:29.405Z,90.00
2023-04-16T00:08:57.858Z,90.10
2023-04-16T00:11:25.963Z,90.10
2023-04-16T00:13:54.238Z,90.40
2023-04-16T00:16:22.127Z,90.20
2023-04-16T00:18:49.831Z,90.30
2023-04-16T00:21:22.575Z,90.10
2023-04-16T00:23:50.254Z,90.10
2023-04-16T00:26:18.804Z,90.40
2023-04-16T00:28:48.573Z,90.40
2023-04-16T00:31:17.385Z,90.20
2023-04-16T00:33:45.536Z,90.30
2023-04-16T00:36:15.715Z,90.80
2023-04-16T00:38:43.487Z,90.40
2023-04-16T00:41:13.721Z,90.40
2023-04-16T00:43:41.626Z,90.00
2023-04-16T00:46:09.605Z,90.00
2023-04-16T00:48:37.358Z,90.00
2023-04-16T00:51:06.932Z,90.00
2023-04-16T00:53:34.677Z,90.00
2023-04-16T00:56:03.519Z,90.10
2023-04-16T00:58:32.668Z,90.50
2023-04-16T01:01:01.025Z,90.20
2023-04-16T01:03:31.125Z,90.30
2023-04-16T01:05:59.291Z,90.10
2023-04-16T01:08:27.972Z,89.90
2023-04-16T01:10:56.572Z,89.20
2023-04-16T01:13:24.483Z,88.60
2023-04-16T01:15:52.153Z,87.70
2023-04-16T01:18:19.807Z,88.10
2023-04-16T01:20:47.802Z,88.20
2023-04-16T01:23:15.395Z,88.50
2023-04-16T01:25:44.359Z,87.50
2023-04-16T01:28:13.027Z,88.00
2023-04-16T01:30:41.239Z,87.20
2023-04-16T01:33:09.032Z,87.60
2023-04-16T01:35:38.534Z,87.90
2023-04-16T01:38:06.359Z,88.30
2023-04-16T01:40:37.368Z,87.80
2023-04-16T01:43:05.080Z,87.80
2023-04-16T01:45:32.619Z,88.30
2023-04-16T01:48:00.258Z,87.90
2023-04-16T01:50:28.181Z,89.10
2023-04-16T01:52:55.793Z,88.50
2023-04-16T01:55:23.702Z,88.80
2023-04-16T01:57:51.415Z,88.10
2023-04-16T02:00:19.000Z,87.50
2023-04-16T02:02:46.886Z,87.30
2023-04-16T02:05:16.688Z,86.70
2023-04-16T02:07:44.368Z,86.20
2023-04-16T02:10:11.999Z,86.30
2023-04-16T02:12:40.454Z,86.60
2023-04-16T02:15:08.000Z,86.10
2023-04-16T02:17:35.716Z,85.90
2023-04-16T02:20:03.529Z,85.80
2023-04-16T02:22:31.194Z,85.60
2023-04-16T02:24:58.770Z,84.90
2023-04-16T02:27:26.665Z,84.80
2023-04-16T02:29:54.268Z,84.70
2023-04-16T02:32:21.889Z,84.40
2023-04-16T02:34:49.725Z,84.10
2023-04-16T02:37:17.341Z,83.80
2023-04-16T02:39:45.087Z,83.40
2023-04-16T02:42:12.838Z,83.50
2023-04-16T02:44:40.377Z,84.00
2023-04-16T02:47:08.064Z,83.30
2023-04-16T02:49:36.329Z,82.50
2023-04-16T02:52:03.916Z,82.50
2023-04-16T02:54:31.665Z,82.10
2023-04-16T02:57:00.952Z,81.50
2023-04-16T02:59:29.606Z,81.30
2023-04-16T03:01:57.720Z,81.20
2023-04-16T03:04:26.561Z,81.60
2023-04-16T03:06:54.673Z,81.70
2023-04-16T03:09:22.725Z,82.10
2023-04-16T03:11:50.921Z,81.30
2023-04-16T03:14:19.025Z,80.40
2023-04-16T03:16:47.019Z,79.90
2023-04-16T03:19:18.064Z,79.40
2023-04-16T03:21:45.846Z,79.20
2023-04-16T03:24:16.165Z,79.30
2023-04-16T03:26:45.111Z,79.30
2023-04-16T03:29:15.432Z,78.00
2023-04-16T03:31:43.059Z,78.30
2023-04-16T03:34:12.059Z,78.50
2023-04-16T03:36:39.834Z,78.40
2023-04-16T03:39:08.042Z,78.30
2023-04-16T03:41:36.136Z,78.00
2023-04-16T03:44:03.786Z,77.30
2023-04-16T03:46:32.117Z,77.00
2023-04-16T03:49:00.207Z,76.90
2023-04-16T03:51:27.854Z,77.20
2023-04-16T03:53:55.394Z,77.50
2023-04-16T03:56:24.183Z,77.50
2023-04-16T03:58:52.394Z,77.40
2023-04-16T04:01:20.189Z,76.50
2023-04-16T04:03:49.219Z,77.50
2023-04-16T04:06:17.045Z,76.90
2023-04-16T04:08:44.738Z,76.90
2023-04-16T04:11:12.812Z,76.30
2023-04-16T04:13:40.346Z,75.80
2023-04-16T04:16:07.970Z,75.60
2023-04-16T04:18:37.500Z,75.30
2023-04-16T04:21:05.055Z,75.90
2023-04-16T04:23:32.985Z,76.40
2023-04-16T04:26:01.461Z,76.70
2023-04-16T04:28:29.336Z,77.40
2023-04-16T04:30:57.200Z,77.10
2023-04-16T04:33:26.649Z,77.50
2023-04-16T04:35:54.863Z,76.90
2023-04-16T04:38:22.658Z,77.00
2023-04-16T04:40:51.218Z,76.50
2023-04-16T04:43:18.853Z,75.60
2023-04-16T04:45:46.421Z,75.80
2023-04-16T04:48:15.080Z,75.90
2023-04-16T04:50:42.678Z,74.40
2023-04-16T04:53:10.248Z,75.80
2023-04-16T04:55:38.308Z,73.80
2023-04-16T04:58:06.330Z,74.20
2023-04-16T05:00:33.978Z,74.30
2023-04-16T05:03:03.303Z,73.70
2023-04-16T05:05:31.045Z,73.20
2023-04-16T05:07:58.634Z,72.80
2023-04-16T05:10:27.057Z,73.20
2023-04-16T05:12:55.773Z,73.40
2023-04-16T05:15:23.765Z,73.30
2023-04-16T05:17:54.022Z,71.90
2023-04-16T05:20:22.720Z,71.80
2023-04-16T05:22:51.510Z,72.10
2023-04-16T05:25:21.094Z,71.60
2023-04-16T05:27:49.025Z,71.50
2023-04-16T05:30:16.750Z,71.70
2023-04-16T05:32:46.034Z,71.50
2023-04-16T05:35:15.982Z,71.60
2023-04-16T05:37:45.330Z,71.80
2023-04-16T05:40:14.218Z,72.00
2023-04-16T05:42:42.068Z,72.60
2023-04-16T05:45:10.046Z,71.70
2023-04-16T05:47:38.701Z,71.30
2023-04-16T05:50:06.471Z,71.60
2023-04-16T05:52:35.118Z,71.00
2023-04-16T05:55:04.052Z,71.20
2023-04-16T05:57:32.041Z,71.10
2023-04-16T06:00:00.053Z,71.20
2023-04-16T06:02:29.596Z,71.30
2023-04-16T06:04:57.608Z,71.50
2023-04-16T06:07:27.051Z,71.60
2023-04-16T06:09:55.580Z,71.40
2023-04-16T06:12:23.342Z,71.60
2023-04-16T06:14:51.391Z,70.80
2023-04-16T06:17:20.852Z,70.30
2023-04-16T06:19:48.645Z,69.70
2023-04-16T06:22:16.734Z,69.70
2023-04-16T06:24:45.300Z,69.40
2023-04-16T06:27:13.042Z,69.80
2023-04-16T06:29:41.831Z,69.80
2023-04-16T06:32:10.760Z,70.40
2023-04-16T06:34:38.492Z,71.20
2023-04-16T06:37:07.195Z,70.70
2023-04-16T06:39:38.261Z,71.20
2023-04-16T06:42:05.856Z,71.00
2023-04-16T06:44:34.368Z,70.90
2023-04-16T06:47:02.335Z,70.90
2023-04-16T06:49:30.105Z,70.90
2023-04-16T06:51:57.928Z,71.20
2023-04-16T06:54:25.781Z,70.50
2023-04-16T06:56:53.946Z,70.40
2023-04-16T06:59:28.733Z,70.30
2023-04-16T07:01:56.366Z,70.40
2023-04-16T07:04:24.102Z,70.60
2023-04-16T07:06:52.112Z,70.60
2023-04-16T07:09:19.650Z,71.10
2023-04-16T07:11:47.235Z,71.10
2023-04-16T07:14:15.303Z,70.70
2023-04-16T07:16:42.925Z,70.40
2023-04-16T07:19:11.000Z,70.40
2023-04-16T07:21:39.136Z,70.00
2023-04-16T07:24:06.659Z,69.40
2023-04-16T07:26:34.669Z,69.40
2023-04-16T07:29:02.724Z,69.50
2023-04-16T07:31:30.311Z,69.60
2023-04-16T07:33:57.870Z,69.10
2023-04-16T07:36:25.739Z,68.90
2023-04-16T07:38:53.352Z,69.10
2023-04-16T07:41:21.105Z,69.10
2023-04-16T07:43:49.026Z,69.00
2023-04-16T07:46:16.577Z,69.40
2023-04-16T07:48:44.628Z,69.30
2023-04-16T07:51:12.542Z,68.70
2023-04-16T07:53:40.504Z,69.00
2023-04-16T07:56:08.339Z,68.30
2023-04-16T07:58:36.342Z,68.60
2023-04-16T08:01:04.096Z,68.10
2023-04-16T08:03:32.272Z,68.40
2023-04-16T08:06:01.241Z,68.30
2023-04-16T08:08:28.792Z,68.10
2023-04-16T08:10:56.514Z,68.00
2023-04-16T08:13:24.499Z,67.70
2023-04-16T08:15:52.726Z,67.30
2023-04-16T08:18:20.348Z,67.40
2023-04-16T08:20:49.039Z,67.60
2023-04-16T08:23:16.716Z,67.40
2023-04-16T08:25:44.244Z,67.30
2023-04-16T08:28:13.136Z,67.50
2023-04-16T08:30:41.543Z,67.90
2023-04-16T08:33:10.625Z,67.40
2023-04-16T08:35:38.845Z,66.80
2023-04-16T08:38:06.376Z,67.00
2023-04-16T08:40:34.999Z,67.10
2023-04-16T08:43:03.499Z,66.30
2023-04-16T08:45:31.225Z,66.30
2023-04-16T08:47:59.635Z,65.50
2023-04-16T08:50:29.927Z,66.10
2023-04-16T08:52:57.602Z,66.10
2023-04-16T08:55:27.895Z,66.20
2023-04-16T08:57:58.352Z,66.10
2023-04-16T09:00:26.435Z,65.10
2023-04-16T09:02:54.580Z,65.30
2023-04-16T09:05:22.980Z,65.00
2023-04-16T09:07:50.911Z,65.00
2023-04-16T09:10:18.642Z,64.40
2023-04-16T09:12:47.588Z,64.30
2023-04-16T09:15:17.760Z,64.30
2023-04-16T09:17:47.140Z,65.30
2023-04-16T09:20:16.273Z,64.00
2023-04-16T09:22:44.853Z,64.40
2023-04-16T09:25:13.249Z,64.20
2023-04-16T09:27:41.506Z,63.80
2023-04-16T09:30:09.311Z,64.00
2023-04-16T09:32:38.388Z,64.30
2023-04-16T09:35:06.878Z,64.20
2023-04-16T09:37:34.869Z,64.20
2023-04-16T09:40:02.916Z,64.50
2023-04-16T09:42:32.350Z,65.80
2023-04-16T09:45:04.157Z,65.30
2023-04-16T09:47:34.110Z,65.10
2023-04-16T09:50:02.633Z,64.80
2023-04-16T09:52:31.000Z,64.20
2023-04-16T09:55:00.014Z,64.50
2023-04-16T09:57:29.164Z,64.50
2023-04-16T09:59:59.136Z,64.70
2023-04-16T10:02:28.186Z,64.50
2023-04-16T10:04:55.933Z,64.90
2023-04-16T10:07:24.008Z,64.60
2023-04-16T10:09:52.584Z,65.00
2023-04-16T10:12:20.541Z,64.80
2023-04-16T10:14:50.123Z,65.10
2023-04-16T10:17:18.446Z,66.10
2023-04-16T10:19:46.152Z,66.90
2023-04-16T10:22:14.036Z,66.80
2023-04-16T10:24:43.801Z,66.80
2023-04-16T10:27:11.370Z,66.30
2023-04-16T10:29:39.031Z,66.40
2023-04-16T10:32:07.448Z,66.30
2023-04-16T10:34:34.962Z,66.50
2023-04-16T10:37:02.707Z,66.30
2023-04-16T10:39:30.742Z,67.30
2023-04-16T10:41:58.275Z,66.90
2023-04-16T10:44:26.233Z,66.60
2023-04-16T10:46:55.108Z,67.80
2023-04-16T10:49:23.216Z,69.50
2023-04-16T10:51:51.026Z,70.10
2023-04-16T10:54:19.516Z,69.00
2023-04-16T10:56:47.135Z,70.00
2023-04-16T10:59:14.717Z,70.50
2023-04-16T11:01:44.251Z,73.70
2023-04-16T11:04:11.928Z,75.10
2023-04-16T11:06:39.861Z,75.30
2023-04-16T11:09:08.242Z,75.70
2023-04-16T11:11:35.874Z,77.70
2023-04-16T11:14:03.997Z,77.80
2023-04-16T11:16:32.823Z,76.60
2023-04-16T11:19:00.827Z,75.30
2023-04-16T11:21:28.394Z,75.70
2023-04-16T11:23:57.007Z,74.30
2023-04-16T11:26:25.049Z,73.90
2023-04-16T11:28:52.812Z,73.60
2023-04-16T11:31:21.527Z,75.10
2023-04-16T11:33:49.439Z,74.70
2023-04-16T11:36:17.473Z,75.10
2023-04-16T11:38:46.192Z,75.70
2023-04-16T11:41:13.751Z,75.40
2023-04-16T11:43:41.666Z,75.00
2023-04-16T11:46:20.064Z,74.20
2023-04-16T11:48:52.961Z,74.70
2023-04-16T11:51:21.491Z,74.90
2023-04-16T11:53:49.232Z,75.30
2023-04-16T11:56:17.087Z,75.90
2023-04-16T11:58:45.631Z,75.70
2023-04-16T12:01:15.095Z,75.60
2023-04-16T12:03:43.389Z,75.10
2023-04-16T12:06:11.553Z,75.00
2023-04-16T12:08:39.904Z,74.40
2023-04-16T12:11:07.785Z,74.20
2023-04-16T12:13:35.967Z,74.30
2023-04-16T12:16:03.725Z,74.60
2023-04-16T12:18:31.680Z,74.60
2023-04-16T12:21:00.311Z,74.80
2023-04-16T12:23:28.699Z,75.30
2023-04-16T12:25:56.518Z,75.10
2023-04-16T12:28:24.376Z,75.10
2023-04-16T12:30:52.066Z,75.10
2023-04-16T12:33:20.017Z,74.90
2023-04-16T12:35:48.382Z,75.00
2023-04-16T12:38:16.601Z,74.60
2023-04-16T12:40:44.181Z,74.30
2023-04-16T12:43:12.138Z,74.00
2023-04-16T12:45:39.891Z,74.10
2023-04-16T12:48:07.688Z,74.30
2023-04-16T12:50:35.653Z,74.10
2023-04-16T12:53:03.263Z,73.80
2023-04-16T12:55:31.569Z,73.70
2023-04-16T12:58:00.954Z,73.90
2023-04-16T13:00:28.560Z,74.00
2023-04-16T13:02:56.605Z,74.20
2023-04-16T13:05:25.113Z,74.20
2023-04-16T13:07:52.949Z,74.60
2023-04-16T13:10:21.558Z,74.30
2023-04-16T13:12:50.250Z,74.30
2023-04-16T13:15:18.049Z,74.50
2023-04-16T13:17:46.105Z,74.70
2023-04-16T13:20:14.713Z,75.60
2023-04-16T13:22:42.301Z,76.00
2023-04-16T13:25:10.478Z,76.50
2023-04-16T13:27:38.504Z,76.00
2023-04-16T13:30:06.064Z,75.90
2023-04-16T13:32:34.729Z,75.60
2023-04-16T13:35:03.659Z,76.00
2023-04-16T13:37:31.656Z,75.70
2023-04-16T13:39:59.511Z,76.20
2023-04-16T13:42:29.593Z,76.00
2023-04-16T13:44:57.906Z,75.50
2023-04-16T13:47:26.164Z,75.20
2023-04-16T13:49:54.464Z,74.80
2023-04-16T13:52:22.554Z,74.80
2023-04-16T13:54:51.152Z,75.20
2023-04-16T13:57:19.690Z,75.40
2023-04-16T13:59:47.547Z,75.40
2023-04-16T14:02:21.211Z,76.10
2023-04-16T14:04:50.792Z,76.10
2023-04-16T14:07:19.857Z,75.50
2023-04-16T14:09:48.557Z,75.40
2023-04-16T14:12:16.935Z,75.60
2023-04-16T14:14:45.726Z,76.10
2023-04-16T14:17:14.840Z,75.50
2023-04-16T14:19:43.255Z,75.10
2023-04-16T14:22:11.665Z,74.60
2023-04-16T14:24:41.021Z,74.40
2023-04-16T14:27:08.864Z,74.60
2023-04-16T14:29:37.342Z,74.90
2023-04-16T14:32:06.150Z,74.60
2023-04-16T14:34:34.947Z,74.20
2023-04-16T14:37:02.722Z,74.70
2023-04-16T14:39:31.651Z,74.80
2023-04-16T14:41:59.233Z,74.60
2023-04-16T14:44:26.962Z,75.70
2023-04-16T14:46:54.999Z,75.90
2023-04-16T14:49:22.665Z,75.70
2023-04-16T14:51:51.022Z,75.60
2023-04-16T14:54:19.056Z,76.10
2023-04-16T14:56:46.600Z,76.60
2023-04-16T14:59:14.178Z,76.10
2023-04-16T15:01:43.476Z,75.90
2023-04-16T15:04:11.367Z,75.70
2023-04-16T15:06:39.037Z,76.20
2023-04-16T15:09:07.397Z,76.30
2023-04-16T15:11:35.688Z,75.90
2023-04-16T15:14:03.253Z,76.70
2023-04-16T15:16:31.622Z,76.60
2023-04-16T15:18:59.321Z,76.40
2023-04-16T15:21:27.059Z,76.50
2023-04-16T15:23:55.842Z,76.60
2023-04-16T15:26:23.680Z,76.40
2023-04-16T15:28:51.218Z,76.90
2023-04-16T15:31:20.406Z,76.90
2023-04-16T15:33:48.354Z,76.10
2023-04-16T15:36:15.975Z,75.70
2023-04-16T15:38:46.002Z,75.80
2023-04-16T15:41:13.654Z,76.10
2023-04-16T15:43:41.204Z,76.10
2023-04-16T15:46:09.694Z,76.20
2023-04-16T15:48:37.313Z,75.80
2023-04-16T15:51:05.071Z,75.70
2023-04-16T15:53:34.142Z,75.90
2023-04-16T15:56:02.968Z,76.10
2023-04-16T15:58:30.540Z,76.20
2023-04-16T16:00:59.188Z,76.20
2023-04-16T16:03:36.665Z,76.80
2023-04-16T16:06:05.377Z,76.30
2023-04-16T16:08:34.108Z,76.10
2023-04-16T16:11:01.838Z,76.40
2023-04-16T16:13:30.520Z,76.30
2023-04-16T16:15:58.268Z,76.20
2023-04-16T16:18:26.095Z,76.80
2023-04-16T16:20:55.620Z,77.40
2023-04-16T16:23:23.660Z,77.90
2023-04-16T16:25:51.204Z,78.30
2023-04-16T16:28:20.158Z,78.60
2023-04-16T16:30:47.787Z,78.50
2023-04-16T16:33:15.654Z,78.70
2023-04-16T16:35:44.629Z,78.90
2023-04-16T16:38:12.224Z,78.50
2023-04-16T16:43:24.648Z,77.10
2023-04-16T16:45:52.880Z,77.20
2023-04-16T16:48:20.576Z,77.30
2023-04-16T16:50:54.148Z,77.20
2023-04-16T16:53:21.711Z,77.90
2023-04-16T16:55:49.429Z,79.10
2023-04-16T16:58:29.338Z,79.10
2023-04-16T17:00:57.395Z,79.40
2023-04-16T17:03:25.720Z,79.20
2023-04-16T17:05:53.471Z,79.20
2023-04-16T17:08:30.755Z,79.50
2023-04-16T17:10:58.743Z,79.50
2023-04-16T17:13:26.360Z,79.50
2023-04-16T17:15:53.914Z,79.50
2023-04-16T17:18:21.696Z,79.30
2023-04-16T17:20:49.826Z,79.40
2023-04-16T17:23:17.434Z,79.40
2023-04-16T17:25:45.252Z,79.80
2023-04-16T17:28:12.994Z,79.40
2023-04-16T17:30:40.625Z,79.60
2023-04-16T17:33:08.404Z,80.50
2023-04-16T17:35:36.311Z,81.00
2023-04-16T17:38:03.872Z,81.40
2023-04-16T17:40:32.434Z,81.20
2023-04-16T17:43:00.159Z,80.70
2023-04-16T17:45:27.979Z,81.50
2023-04-16T17:47:55.746Z,81.30
2023-04-16T17:50:23.663Z,80.50
2023-04-16T17:52:51.245Z,80.40
2023-04-16T17:55:18.960Z,80.60
2023-04-16T17:57:46.967Z,79.90
2023-04-16T18:00:14.569Z,80.20
2023-04-16T18:02:43.002Z,80.30
2023-04-16T18:05:11.673Z,80.20
2023-04-16T18:07:39.732Z,79.90
2023-04-16T18:10:07.462Z,79.30
2023-04-16T18:12:35.630Z,79.30
2023-04-16T18:15:04.615Z,80.40
2023-04-16T18:17:34.073Z,80.40
2023-04-16T18:20:01.871Z,81.70
2023-04-16T18:22:29.715Z,81.90
2023-04-16T18:24:58.096Z,81.70
2023-04-16T18:27:25.864Z,81.30
2023-04-16T18:29:54.848Z,82.00
2023-04-16T18:32:23.043Z,82.10
2023-04-16T18:34:53.790Z,82.10
2023-04-16T18:37:21.475Z,82.30
2023-04-16T18:39:49.239Z,82.00
2023-04-16T18:42:16.864Z,81.80
2023-04-16T18:44:44.478Z,82.20
2023-04-16T18:47:12.238Z,83.10
2023-04-16T18:49:39.910Z,83.70
2023-04-16T18:52:07.524Z,83.70
2023-04-16T18:54:35.293Z,84.50
2023-04-16T18:57:02.970Z,85.00
2023-04-16T18:59:30.989Z,84.90
2023-04-16T19:01:58.766Z,85.60
2023-04-16T19:04:26.639Z,86.10
2023-04-16T19:06:54.440Z,86.60
2023-04-16T19:09:22.341Z,87.20
2023-04-16T19:11:53.277Z,88.30
2023-04-16T19:14:21.704Z,89.70
2023-04-16T19:16:49.665Z,89.40
2023-04-16T19:19:17.961Z,89.00
2023-04-16T19:21:45.563Z,88.80
2023-04-16T19:24:14.716Z,89.10
2023-04-16T19:26:42.600Z,89.60
2023-04-16T19:29:10.882Z,89.10
2023-04-16T19:31:40.200Z,89.90
2023-04-16T19:34:08.628Z,90.20
2023-04-16T19:36:40.225Z,90.60
2023-04-16T19:39:09.133Z,90.20
2023-04-16T19:41:37.248Z,90.50
2023-04-16T19:44:05.417Z,90.20
2023-04-16T19:46:34.915Z,90.40
2023-04-16T19:49:04.204Z,90.40
2023-04-16T19:51:32.315Z,90.80
2023-04-16T19:54:00.634Z,91.10
2023-04-16T19:56:28.380Z,91.00
2023-04-16T19:58:56.059Z,91.20
2023-04-16T20:01:25.129Z,91.60
2023-04-16T20:03:57.470Z,91.40
2023-04-16T20:06:26.197Z,91.80
2023-04-16T20:08:57.948Z,91.70
2023-04-16T20:11:26.113Z,91.80
2023-04-16T20:13:54.040Z,91.50
2023-04-16T20:16:21.691Z,91.80
2023-04-16T20:18:52.676Z,91.40
2023-04-16T20:21:21.731Z,91.30
2023-04-16T20:23:53.085Z,91.10
2023-04-16T20:26:27.979Z,90.70
2023-04-16T20:29:00.747Z,90.60
2023-04-16T20:31:29.476Z,90.70
2023-04-16T20:34:06.685Z,90.70
2023-04-16T20:36:41.810Z,90.60
2023-04-16T20:39:11.358Z,90.60
2023-04-16T20:41:41.937Z,90.20
2023-04-16T20:44:15.758Z,90.00
2023-04-16T20:46:48.684Z,90.20
2023-04-16T20:49:24.853Z,90.30
2023-04-16T20:52:12.294Z,90.70
2023-04-16T20:54:44.250Z,90.50
2023-04-16T20:57:14.632Z,90.70
2023-04-16T20:59:49.579Z,90.40
2023-04-16T21:02:20.241Z,90.60
2023-04-16T21:04:51.048Z,90.50
2023-04-16T21:07:23.210Z,90.30
2023-04-16T21:09:50.672Z,90.80
2023-04-16T21:12:18.232Z,90.60
2023-04-16T21:15:04.203Z,90.50
2023-04-16T21:17:52.179Z,90.70
2023-04-16T21:20:40.077Z,91.10
2023-04-16T21:23:27.876Z,91.30
2023-04-16T21:26:15.718Z,91.80
2023-04-16T21:29:03.512Z,91.90
2023-04-16T21:31:51.736Z,92.50
2023-04-16T21:34:40.796Z,92.50
2023-04-16T21:37:28.646Z,92.00
2023-04-16T21:40:16.787Z,91.40
2023-04-16T21:43:05.167Z,91.10
2023-04-16T21:45:52.960Z,91.20
2023-04-16T21:48:40.822Z,91.20
2023-04-16T21:51:28.725Z,91.20
2023-04-16T21:54:16.678Z,90.70
2023-04-16T21:57:04.621Z,90.30
2023-04-16T21:59:52.477Z,90.20
2023-04-16T22:02:40.441Z,90.00
2023-04-16T22:05:28.485Z,90.30
2023-04-16T22:08:24.474Z,90.40
2023-04-16T22:11:12.613Z,90.50
2023-04-16T22:14:00.517Z,90.40
2023-04-16T22:16:48.514Z,90.40
2023-04-16T22:19:36.468Z,90.80
2023-04-16T22:22:24.880Z,90.70
2023-04-16T22:25:13.036Z,90.80
2023-04-16T22:28:00.929Z,91.40
2023-04-16T22:30:48.857Z,91.50
2023-04-16T22:33:36.813Z,91.20
2023-04-16T22:36:19.262Z,90.90
2023-04-16T22:39:06.770Z,90.80
2023-04-16T22:41:42.458Z,90.70
2023-04-16T22:44:17.715Z,90.70
2023-04-16T22:46:50.728Z,90.50
2023-04-16T22:49:19.973Z,90.20
2023-04-16T22:51:55.822Z,90.10
2023-04-16T22:54:43.455Z,90.10
2023-04-16T22:57:17.982Z,90.10
2023-04-16T22:59:48.079Z,90.20
2023-04-16T23:02:16.194Z,90.00
2023-04-16T23:04:46.989Z,90.40
2023-04-16T23:07:15.373Z,90.10
2023-04-16T23:10:00.946Z,90.20
2023-04-16T23:12:38.136Z,90.30
2023-04-16T23:15:07.539Z,90.40
2023-04-16T23:17:35.627Z,90.10
2023-04-16T23:20:03.395Z,90.10
2023-04-16T23:22:33.113Z,90.00
2023-04-16T23:25:04.999Z,90.10
2023-04-16T23:27:32.598Z,90.10
2023-04-16T23:30:00.349Z,90.10
2023-04-16T23:32:28.198Z,90.30
2023-04-16T23:34:56.556Z,90.50
2023-04-16T23:37:24.472Z,90.70
2023-04-16T23:39:53.170Z,90.70
2023-04-16T23:42:22.181Z,90.80
2023-04-16T23:44:50.502Z,90.90
2023-04-16T23:47:19.531Z,91.20
2023-04-16T23:49:59.603Z,91.20
2023-04-16T23:52:28.813Z,91.10
2023-04-16T23:54:56.529Z,91.20
2023-04-16T23:57:24.697Z,91.00
2023-04-16T23:59:52.373Z,91.50
